Time;durP1;ratioP1;P1;durP2;ratioP2;P2;SDS_P1;SDS_P2;PMS_P1;PMS_P2;Temp;Humidity;BMP_temperature;BMP_pressure;BME280_temperature;BME280_humidity;BME280_pressure;Samples;Min_cycle;Max_cycle;Signal;HPM_P1;HPM_P2
2024/04/22 00:00:46;;;;;;;18.10;8.80;;;2.90;99.90;;;;;;5546280;25;20775;-66
2024/04/22 00:03:33;;;;;;;15.77;9.40;;;2.90;99.90;;;;;;5531218;25;20789;-66
2024/04/22 00:06:22;;;;;;;18.57;9.60;;;2.80;16.60;;;;;;5547358;25;20277;-66
2024/04/22 00:09:09;;;;;;;15.33;9.50;;;2.90;99.90;;;;;;5544732;25;20623;-63
2024/04/22 00:12:01;;;;;;;17.47;9.57;;;2.90;99.90;;;;;;5538252;25;20265;-65
2024/04/22 00:14:48;;;;;;;17.03;10.67;;;2.90;99.90;;;;;;5537107;25;20333;-67
2024/04/22 00:17:37;;;;;;;18.27;9.13;;;2.90;1.00;;;;;;5552331;25;20222;-66
2024/04/22 00:20:23;;;;;;;18.70;10.33;;;2.90;1.00;;;;;;5548967;25;20297;-65
2024/04/22 00:23:13;;;;;;;17.87;8.00;;;2.90;99.90;;;;;;5551838;25;20262;-65
2024/04/22 00:26:00;;;;;;;17.73;9.67;;;2.90;99.90;;;;;;5551676;25;20270;-65
2024/04/22 00:28:52;;;;;;;17.67;9.73;;;2.70;99.90;;;;;;5535247;25;20310;-65
2024/04/22 00:31:39;;;;;;;16.17;8.93;;;2.70;1.00;;;;;;5536877;25;20307;-65
2024/04/22 00:34:28;;;;;;;18.90;9.43;;;2.80;1.00;;;;;;5538606;25;20755;-66
2024/04/22 00:37:17;;;;;;;17.23;10.00;;;2.70;1.00;;;;;;5536766;25;20282;-66
2024/04/22 00:40:05;;;;;;;19.90;9.50;;;2.70;1.00;;;;;;5539130;25;20279;-66
2024/04/22 00:42:54;;;;;;;14.60;8.70;;;2.80;99.90;;;;;;5541322;25;20222;-65
2024/04/22 00:45:46;;;;;;;16.73;9.10;;;2.70;99.90;;;;;;5531577;25;20234;-67
2024/04/22 00:48:34;;;;;;;20.90;10.20;;;2.70;99.90;;;;;;5543557;25;20239;-65
2024/04/22 00:51:23;;;;;;;19.90;10.50;;;2.70;99.90;;;;;;5546467;25;20642;-66
2024/04/22 00:54:10;;;;;;;21.40;11.03;;;2.70;1.00;;;;;;5515847;25;20228;-65
2024/04/22 00:56:59;;;;;;;18.90;7.77;;;2.60;1.00;;;;;;5534990;25;20226;-66
2024/04/22 00:59:46;;;;;;;15.93;8.67;;;2.60;33.10;;;;;;5528732;25;20740;-66
2024/04/22 01:02:38;;;;;;;18.00;10.00;;;2.60;1.00;;;;;;5534092;25;20311;-65
2024/04/22 01:05:25;;;;;;;16.37;8.33;;;2.60;1.00;;;;;;5521904;25;20720;-65
2024/04/22 01:08:14;;;;;;;19.77;10.33;;;2.50;99.90;;;;;;5529701;25;20218;-65
2024/04/22 01:11:01;;;;;;;9.93;4.90;;;2.50;99.90;;;;;;5538302;25;20227;-66
2024/04/22 01:13:51;;;;;;;15.73;7.37;;;2.50;99.90;;;;;;5540820;25;20223;-65
2024/04/22 01:16:37;;;;;;;16.90;9.53;;;2.50;99.90;;;;;;5537744;25;20286;-65
2024/04/22 01:19:30;;;;;;;17.67;8.40;;;2.40;99.90;;;;;;5559392;25;20272;-65
2024/04/22 01:22:19;;;;;;;12.10;6.47;;;2.40;1.00;;;;;;5542929;25;20284;-66
2024/04/22 01:25:09;;;;;;;20.47;10.70;;;2.30;1.00;;;;;;5553425;25;20259;-65
2024/04/22 01:27:56;;;;;;;16.67;8.43;;;2.30;99.90;;;;;;5550876;25;20299;-66
2024/04/22 01:30:45;;;;;;;20.43;10.20;;;2.20;1.00;;;;;;5533710;25;20295;-65
2024/04/22 01:33:32;;;;;;;17.10;9.27;;;2.30;99.90;;;;;;5563663;25;20290;-65
2024/04/22 01:36:21;;;;;;;22.57;8.93;;;2.30;1.00;;;;;;5545181;25;20223;-66
2024/04/22 01:39:11;;;;;;;16.53;8.23;;;2.30;99.90;;;;;;5544470;25;20324;-65
2024/04/22 01:42:00;;;;;;;22.43;8.70;;;2.20;1.00;;;;;;5531218;25;20223;-65
2024/04/22 01:44:47;;;;;;;15.37;7.53;;;2.20;50.20;;;;;;5533243;25;20667;-66
2024/04/22 01:47:36;;;;;;;19.60;8.80;;;2.20;1.00;;;;;;5552775;25;20222;-65
2024/04/22 01:50:23;;;;;;;13.40;8.07;;;2.10;1.00;;;;;;5541792;25;20239;-66
2024/04/22 01:53:12;;;;;;;18.60;8.30;;;2.10;1.00;;;;;;5539526;25;20262;-65
2024/04/22 01:56:01;;;;;;;14.57;8.10;;;2.00;1.00;;;;;;5548932;25;20282;-65
2024/04/22 01:58:51;;;;;;;18.33;8.23;;;2.10;6.00;;;;;;5521857;25;20223;-66
2024/04/22 02:01:40;;;;;;;14.43;8.30;;;2.10;76.20;;;;;;5543283;25;20775;-66
2024/04/22 02:04:29;;;;;;;17.57;8.90;;;2.10;1.00;;;;;;5522572;25;20269;-65
2024/04/22 02:07:16;;;;;;;15.13;8.17;;;2.10;99.90;;;;;;5534099;25;20222;-65
2024/04/22 02:10:06;;;;;;;16.47;8.37;;;2.10;51.00;;;;;;5537219;25;20772;-65
2024/04/22 02:12:56;;;;;;;13.57;6.40;;;1.90;99.90;;;;;;5552284;25;20271;-65
2024/04/22 02:15:45;;;;;;;13.10;7.20;;;1.90;1.00;;;;;;5527629;25;20601;-65
2024/04/22 02:18:32;;;;;;;15.47;8.57;;;2.00;48.40;;;;;;5539189;25;20710;-65
2024/04/22 02:21:21;;;;;;;18.03;8.77;;;2.00;1.00;;;;;;5555576;25;20871;-65
2024/04/22 02:24:08;;;;;;;13.77;7.57;;;1.90;99.90;;;;;;5539164;25;20232;-65
2024/04/22 02:26:57;;;;;;;14.47;7.60;;;1.80;1.00;;;;;;5529604;25;20269;-66
2024/04/22 02:29:46;;;;;;;14.03;7.73;;;1.80;99.90;;;;;;5539419;25;20641;-66
2024/04/22 02:32:36;;;;;;;10.13;5.13;;;1.70;99.90;;;;;;5543374;25;20230;-65
2024/04/22 02:35:22;;;;;;;16.67;8.00;;;1.70;24.80;;;;;;5553313;25;20685;-65
2024/04/22 02:38:12;;;;;;;12.43;7.40;;;1.70;99.90;;;;;;5528295;25;20275;-68
2024/04/22 02:40:58;;;;;;;12.70;5.33;;;1.60;99.90;;;;;;5541238;25;20298;-66
2024/04/22 02:43:49;;;;;;;16.87;8.83;;;1.60;1.00;;;;;;5538888;25;20636;-66
2024/04/22 02:46:38;;;;;;;17.33;8.63;;;1.60;8.50;;;;;;5538359;25;20224;-65
2024/04/22 02:49:27;;;;;;;14.73;7.57;;;1.70;99.90;;;;;;5549623;25;20221;-65
2024/04/22 02:52:14;;;;;;;16.10;9.27;;;1.60;99.90;;;;;;5558911;25;20330;-65
2024/04/22 02:55:03;;;;;;;21.90;9.03;;;1.60;99.90;;;;;;5532238;25;20273;-66
2024/04/22 02:57:50;;;;;;;17.97;8.47;;;1.50;99.90;;;;;;5530613;25;20335;-65
2024/04/22 03:00:39;;;;;;;12.20;6.97;;;1.50;1.00;;;;;;5538602;25;20221;-66
2024/04/22 03:03:28;;;;;;;19.77;9.27;;;1.50;1.00;;;;;;5527006;25;20334;-65
2024/04/22 03:06:18;;;;;;;17.43;10.00;;;1.50;1.00;;;;;;5554004;25;20222;-66
2024/04/22 03:09:04;;;;;;;15.47;8.63;;;1.50;1.00;;;;;;5538300;25;20335;-65
2024/04/22 03:11:54;;;;;;;15.60;9.53;;;1.50;1.00;;;;;;5537748;25;20273;-65
2024/04/22 03:14:40;;;;;;;12.33;6.70;;;1.50;1.00;;;;;;5542350;25;20337;-66
2024/04/22 03:17:29;;;;;;;7.47;4.33;;;1.40;1.00;;;;;;5546808;25;20283;-64
2024/04/22 03:20:19;;;;;;;17.43;9.93;;;1.40;1.00;;;;;;5498743;25;20224;-66
2024/04/22 03:23:08;;;;;;;13.37;6.90;;;1.40;85.00;;;;;;5521045;25;20269;-65
2024/04/22 03:25:55;;;;;;;15.70;9.07;;;1.40;1.00;;;;;;5540838;25;20732;-65
2024/04/22 03:28:44;;;;;;;21.20;8.47;;;1.40;1.00;;;;;;5534864;25;20652;-65
2024/04/22 03:31:31;;;;;;;14.73;9.00;;;1.30;1.00;;;;;;5531602;25;20225;-65
2024/04/22 03:34:20;;;;;;;16.60;8.57;;;1.30;99.90;;;;;;5554871;25;20219;-65
2024/04/22 03:37:13;;;;;;;13.93;6.87;;;1.30;1.00;;;;;;5543224;25;20282;-65
2024/04/22 03:40:02;;;;;;;10.90;6.17;;;1.40;1.00;;;;;;5524644;25;20231;-66
2024/04/22 03:42:51;;;;;;;12.27;6.97;;;1.40;99.90;;;;;;5537372;25;20277;-65
2024/04/22 03:45:44;;;;;;;10.37;5.83;;;1.30;99.90;;;;;;5532887;25;20228;-65
2024/04/22 03:51:38;;;;;;;10.90;5.87;;;1.30;1.00;;;;;;5546321;25;20231;-66
2024/04/22 03:54:30;;;;;;;9.60;5.57;;;1.20;97.70;;;;;;5533476;25;20224;-67
2024/04/22 03:57:20;;;;;;;9.43;5.73;;;1.20;1.00;;;;;;5543625;25;20767;-66
2024/04/22 04:00:11;;;;;;;13.60;5.93;;;1.30;1.00;;;;;;5521809;25;20420;-65
2024/04/22 04:02:57;;;;;;;8.90;5.53;;;1.20;1.00;;;;;;5561218;25;20273;-65
2024/04/22 04:05:47;;;;;;;9.57;5.00;;;1.20;99.90;;;;;;5541906;25;20276;-65
2024/04/22 04:08:33;;;;;;;17.83;5.33;;;1.20;1.00;;;;;;5521642;25;20619;-66
2024/04/22 04:11:32;;;;;;;14.23;6.07;;;1.20;99.90;;;;;;5535860;25;20315;-65
2024/04/22 04:14:19;;;;;;;10.87;5.60;;;1.20;99.90;;;;;;5536528;25;20227;-66
2024/04/22 04:17:08;;;;;;;9.80;5.13;;;1.30;1.00;;;;;;5534863;25;20271;-66
2024/04/22 04:19:55;;;;;;;11.37;5.90;;;1.30;99.90;;;;;;5531216;25;20662;-65
2024/04/22 04:22:44;;;;;;;13.47;5.83;;;1.30;99.90;;;;;;5537489;25;20334;-66
2024/04/22 04:25:31;;;;;;;11.40;5.40;;;1.30;1.00;;;;;;5548632;25;20234;-65
2024/04/22 04:28:23;;;;;;;10.20;5.43;;;1.30;1.00;;;;;;5527732;25;20664;-65
2024/04/22 04:31:10;;;;;;;11.47;5.63;;;1.30;99.90;;;;;;5541646;25;20227;-66
2024/04/22 04:33:59;;;;;;;12.70;5.57;;;1.30;99.90;;;;;;5554991;25;20225;-66
2024/04/22 04:36:46;;;;;;;13.77;6.07;;;1.40;1.00;;;;;;5567745;25;20237;-65
2024/04/22 04:39:35;;;;;;;13.17;6.87;;;1.40;1.00;;;;;;5525001;25;20309;-66
2024/04/22 04:42:22;;;;;;;17.37;6.73;;;1.40;99.90;;;;;;5532956;25;20865;-65
2024/04/22 04:45:14;;;;;;;13.53;6.63;;;1.50;1.00;;;;;;5541758;25;20277;-65
2024/04/22 04:48:00;;;;;;;14.10;8.17;;;1.50;99.90;;;;;;5540770;25;20334;-65
2024/04/22 04:50:49;;;;;;;16.90;8.20;;;1.50;1.00;;;;;;5537610;25;20706;-65
2024/04/22 04:53:36;;;;;;;17.17;8.43;;;1.50;99.90;;;;;;5542433;25;20788;-65
2024/04/22 04:56:25;;;;;;;22.10;10.40;;;1.50;99.90;;;;;;5536483;25;20283;-66
2024/04/22 04:59:12;;;;;;;20.83;10.13;;;1.50;1.00;;;;;;5544096;25;20312;-65
2024/04/22 05:02:04;;;;;;;22.13;10.40;;;1.50;99.90;;;;;;5545251;25;20332;-65
2024/04/22 05:04:51;;;;;;;2.57;1.57;;;1.50;99.90;;;;;;5529374;25;20334;-64
2024/04/22 05:07:40;;;;;;;21.57;10.03;;;1.50;1.00;;;;;;5543327;25;20274;-65
2024/04/22 05:10:27;;;;;;;17.83;9.50;;;1.50;92.90;;;;;;5541278;25;20231;-65
2024/04/22 05:13:16;;;;;;;25.63;11.47;;;1.50;1.00;;;;;;5556197;25;20219;-65
2024/04/22 05:16:03;;;;;;;22.03;11.73;;;1.40;99.90;;;;;;5546693;25;20305;-65
2024/04/22 05:18:55;;;;;;;20.37;11.63;;;1.30;99.90;;;;;;5533438;25;20328;-65
2024/04/22 05:21:42;;;;;;;20.87;9.37;;;1.40;1.00;;;;;;5523390;25;20246;-65
2024/04/22 05:24:32;;;;;;;13.63;6.17;;;1.40;1.00;;;;;;5533499;25;20227;-65
2024/04/22 05:27:18;;;;;;;19.03;10.27;;;1.50;99.90;;;;;;5530557;25;20636;-65
2024/04/22 05:30:09;;;;;;;19.83;11.80;;;1.50;1.00;;;;;;5531156;25;20263;-67
2024/04/22 05:33:03;;;;;;;23.87;10.97;;;1.50;99.90;;;;;;5556613;25;20313;-65
2024/04/22 05:36:14;;;;;;;20.73;11.67;;;1.40;1.00;;;;;;5550419;25;20224;-65
2024/04/22 05:39:04;;;;;;;16.07;9.40;;;1.30;1.00;;;;;;5567561;25;20280;-64
2024/04/22 05:41:53;;;;;;;22.10;11.17;;;1.30;1.00;;;;;;5530425;25;20223;-65
2024/04/22 05:44:43;;;;;;;20.93;10.60;;;1.30;1.00;;;;;;5558980;25;20229;-64
2024/04/22 05:47:32;;;;;;;22.27;11.43;;;1.40;99.90;;;;;;5537793;25;20277;-64
2024/04/22 05:50:22;;;;;;;20.00;10.20;;;1.40;99.90;;;;;;5536442;25;20272;-64
2024/04/22 05:53:14;;;;;;;9.40;4.43;;;1.50;1.00;;;;;;5538505;25;20230;-64
2024/04/22 05:56:00;;;;;;;19.20;10.33;;;1.60;99.90;;;;;;5530687;25;20233;-64
2024/04/22 05:58:50;;;;;;;19.80;9.90;;;1.70;1.00;;;;;;5511345;25;20228;-64
2024/04/22 06:01:36;;;;;;;14.70;7.80;;;1.70;99.90;;;;;;5515512;25;20288;-65
2024/04/22 06:04:26;;;;;;;18.07;8.73;;;1.80;99.90;;;;;;5495341;25;20278;-65
2024/04/22 06:07:12;;;;;;;22.20;12.27;;;1.80;99.90;;;;;;5498898;25;20228;-65
2024/04/22 06:10:04;;;;;;;14.83;8.03;;;1.80;1.00;;;;;;5514481;25;20223;-64
2024/04/22 06:12:51;;;;;;;21.97;11.40;;;2.00;99.90;;;;;;5500509;25;20939;-64
2024/04/22 06:15:40;;;;;;;13.27;5.57;;;2.10;1.00;;;;;;5524645;25;20223;-64
2024/04/22 06:18:27;;;;;;;17.70;9.20;;;2.10;1.00;;;;;;5494628;25;20774;-64
2024/04/22 06:21:16;;;;;;;14.43;8.93;;;2.30;1.00;;;;;;5497392;25;20227;-64
2024/04/22 06:24:03;;;;;;;20.13;10.03;;;2.20;1.00;;;;;;5514945;25;20227;-64
2024/04/22 06:26:55;;;;;;;18.30;8.70;;;2.40;99.90;;;;;;5504706;25;20302;-64
2024/04/22 06:29:42;;;;;;;15.33;8.73;;;2.60;87.20;;;;;;5492533;25;20819;-64
2024/04/22 06:32:34;;;;;;;19.03;8.03;;;2.60;1.00;;;;;;5494513;25;20224;-66
2024/04/22 06:35:22;;;;;;;16.93;8.50;;;2.70;99.90;;;;;;5503624;25;20273;-65
2024/04/22 06:38:11;;;;;;;10.90;5.13;;;2.80;99.90;;;;;;5507787;25;20620;-65
2024/04/22 06:40:58;;;;;;;14.07;7.27;;;2.60;47.30;;;;;;5508062;25;20613;-64
2024/04/22 06:43:50;;;;;;;12.10;6.40;;;2.70;99.90;;;;;;5533686;25;20279;-64
2024/04/22 06:46:36;;;;;;;11.03;3.97;;;2.80;99.90;;;;;;5502914;25;20236;-65
2024/04/22 06:49:26;;;;;;;7.27;3.53;;;2.70;99.90;;;;;;5507645;26;20696;-64
2024/04/22 06:52:12;;;;;;;9.07;4.37;;;2.60;99.90;;;;;;5497317;25;20332;-65
2024/04/22 06:55:02;;;;;;;17.47;8.83;;;2.50;99.90;;;;;;5499736;25;20278;-65
2024/04/22 06:57:48;;;;;;;12.53;6.57;;;2.70;99.90;;;;;;5538903;25;20292;-65
2024/04/22 07:00:40;;;;;;;16.73;8.00;;;3.00;99.90;;;;;;5543214;25;20902;-65
2024/04/22 07:03:27;;;;;;;12.77;6.63;;;3.10;99.90;;;;;;5527729;25;20774;-64
2024/04/22 07:06:17;;;;;;;12.50;7.27;;;3.00;1.00;;;;;;5534985;25;20270;-65
2024/04/22 07:09:09;;;;;;;9.77;5.47;;;3.10;1.00;;;;;;5541025;25;20350;-65
2024/04/22 07:11:58;;;;;;;12.30;6.40;;;3.10;1.00;;;;;;5545469;25;20277;-64
2024/04/22 07:14:45;;;;;;;8.50;3.37;;;2.90;1.00;;;;;;5547951;25;20530;-64
2024/04/22 07:17:37;;;;;;;25.10;12.23;;;2.60;88.80;;;;;;5553789;25;20218;-64
2024/04/22 07:20:24;;;;;;;24.93;12.67;;;2.70;45.30;;;;;;5567433;25;20716;-64
2024/04/22 07:23:13;;;;;;;16.77;6.63;;;2.80;14.80;;;;;;5563085;25;20332;-64
2024/04/22 07:26:03;;;;;;;30.73;12.60;;;2.70;1.00;;;;;;5550293;25;20285;-65
2024/04/22 07:28:53;;;;;;;28.20;11.23;;;2.70;1.00;;;;;;5538586;25;20443;-64
2024/04/22 07:31:42;;;;;;;23.30;9.47;;;2.50;1.00;;;;;;5523827;25;20222;-64
2024/04/22 07:34:35;;;;;;;20.17;9.77;;;2.50;1.00;;;;;;5538219;25;20225;-65
2024/04/22 07:37:30;;;;;;;16.20;8.23;;;2.50;1.00;;;;;;5538032;25;20333;-63
2024/04/22 07:40:20;;;;;;;18.03;9.40;;;2.60;1.00;;;;;;5533640;25;20222;-65
2024/04/22 07:43:07;;;;;;;15.70;8.30;;;2.60;1.00;;;;;;5555566;25;20324;-65
2024/04/22 07:45:56;;;;;;;16.83;8.43;;;2.80;1.00;;;;;;5530304;25;20227;-65
2024/04/22 07:48:43;;;;;;;15.30;7.83;;;2.80;1.00;;;;;;5559095;25;20234;-64
2024/04/22 07:51:35;;;;;;;14.83;8.00;;;2.90;1.00;;;;;;5563877;25;20302;-64
2024/04/22 07:54:23;;;;;;;12.43;6.53;;;3.00;1.00;;;;;;5556668;25;20232;-65
2024/04/22 07:57:12;;;;;;;14.93;7.77;;;2.90;99.90;;;;;;5509613;25;20272;-65
2024/04/22 07:59:59;;;;;;;13.33;7.20;;;3.00;99.90;;;;;;5519168;25;20275;-64
2024/04/22 08:02:50;;;;;;;14.93;6.17;;;3.20;99.90;;;;;;5498666;25;20229;-64
2024/04/22 08:05:40;;;;;;;12.20;6.30;;;3.20;99.90;;;;;;5523945;25;20222;-64
2024/04/22 08:08:29;;;;;;;11.07;5.80;;;3.10;99.90;;;;;;5527954;25;20274;-64
2024/04/22 08:11:19;;;;;;;6.87;4.47;;;3.30;99.90;;;;;;5526755;25;20274;-65
2024/04/22 08:14:05;;;;;;;13.13;5.63;;;3.40;99.90;;;;;;5533092;25;20226;-65
2024/04/22 08:16:55;;;;;;;9.20;4.60;;;3.30;99.90;;;;;;5495571;25;20588;-64
2024/04/22 08:19:41;;;;;;;15.77;6.37;;;3.10;99.90;;;;;;5518304;25;20365;-64
2024/04/22 08:22:32;;;;;;;13.63;5.67;;;3.20;99.90;;;;;;5542300;25;20686;-64
2024/04/22 08:25:24;;;;;;;14.80;5.50;;;3.30;99.90;;;;;;5516476;25;20274;-65
2024/04/22 08:28:11;;;;;;;4.93;2.97;;;3.50;99.90;;;;;;5518773;25;20288;-65
2024/04/22 08:31:03;;;;;;;13.57;4.40;;;3.40;99.90;;;;;;5508410;25;20285;-64
2024/04/22 08:33:50;;;;;;;2.60;1.73;;;3.40;99.90;;;;;;5488422;25;20228;-65
2024/04/22 08:36:39;;;;;;;8.60;5.17;;;3.60;99.90;;;;;;5496040;26;20261;-65
2024/04/22 08:39:26;;;;;;;16.57;6.00;;;3.70;99.90;;;;;;5518005;25;20714;-65
2024/04/22 08:42:18;;;;;;;9.10;4.60;;;3.70;99.90;;;;;;5514430;25;20688;-65
2024/04/22 08:45:07;;;;;;;8.50;4.40;;;3.50;99.90;;;;;;5527252;25;20235;-65
2024/04/22 08:47:56;;;;;;;11.03;4.57;;;3.60;99.90;;;;;;5500307;25;20228;-65
2024/04/22 08:50:43;;;;;;;10.60;5.17;;;3.70;99.90;;;;;;5491552;25;20282;-64
2024/04/22 08:53:32;;;;;;;10.83;4.90;;;4.00;99.90;;;;;;5516322;25;20719;-65
2024/04/22 08:56:22;;;;;;;7.90;4.43;;;4.10;25.30;;;;;;5551121;25;20325;-65
2024/04/22 08:59:11;;;;;;;3.30;1.30;;;4.50;99.10;;;;;;5545361;25;20545;-65
2024/04/22 09:02:02;;;;;;;8.73;3.73;;;4.70;42.80;;;;;;5549974;25;20268;-64
2024/04/22 09:04:49;;;;;;;13.33;4.17;;;5.00;69.40;;;;;;5565773;25;20226;-65
2024/04/22 09:07:38;;;;;;;8.87;4.53;;;5.20;1.00;;;;;;5535707;25;20284;-64
2024/04/22 09:10:25;;;;;;;6.13;2.83;;;5.00;1.00;;;;;;5540756;25;20223;-64
2024/04/22 09:13:14;;;;;;;4.03;2.40;;;4.70;1.00;;;;;;5542577;25;20333;-65
2024/04/22 09:16:04;;;;;;;9.67;4.77;;;4.60;1.00;;;;;;5535564;25;20709;-65
2024/04/22 09:18:53;;;;;;;6.07;3.90;;;5.40;82.50;;;;;;5532405;25;20223;-65
2024/04/22 09:21:40;;;;;;;8.73;4.07;;;5.80;57.60;;;;;;5559677;25;20237;-65
2024/04/22 09:24:29;;;;;;;5.13;2.70;;;6.60;1.00;;;;;;5541706;25;20268;-65
2024/04/22 09:27:16;;;;;;;5.57;3.50;;;6.40;1.00;;;;;;5539652;25;20282;-65
2024/04/22 09:30:06;;;;;;;6.77;2.60;;;6.20;1.00;;;;;;5547731;25;20541;-64
2024/04/22 09:32:59;;;;;;;7.13;3.03;;;5.80;1.00;;;;;;5556843;25;20221;-65
2024/04/22 09:35:48;;;;;;;4.93;3.13;;;5.10;1.00;;;;;;5531608;25;20223;-65
2024/04/22 09:38:35;;;;;;;11.40;3.70;;;4.60;1.00;;;;;;5557732;25;20644;-65
2024/04/22 09:41:24;;;;;;;7.47;3.20;;;4.50;99.90;;;;;;5562514;25;20230;-65
2024/04/22 09:44:11;;;;;;;8.20;3.40;;;5.00;1.00;;;;;;5534004;25;20334;-66
2024/04/22 09:47:00;;;;;;;3.13;1.33;;;5.30;1.00;;;;;;5550148;25;20273;-65
2024/04/22 09:49:49;;;;;;;5.43;3.73;;;5.10;1.00;;;;;;5557724;25;20617;-65
2024/04/22 09:52:39;;;;;;;7.63;3.53;;;5.40;1.00;;;;;;5547812;25;20265;-65
2024/04/22 09:55:26;;;;;;;4.70;2.27;;;5.30;1.00;;;;;;5521947;25;20231;-65
2024/04/22 09:58:16;;;;;;;7.50;3.40;;;5.40;49.40;;;;;;5505393;25;20313;-65
2024/04/22 10:01:02;;;;;;;7.13;2.87;;;4.90;1.00;;;;;;5508697;25;20233;-65
2024/04/22 10:03:52;;;;;;;6.23;2.70;;;5.20;1.00;;;;;;5502919;25;20271;-65
2024/04/22 10:06:41;;;;;;;5.67;3.00;;;5.20;1.00;;;;;;5522467;25;20277;-65
2024/04/22 10:09:30;;;;;;;5.97;1.93;;;5.20;1.00;;;;;;5510846;25;20267;-65
2024/04/22 10:12:24;;;;;;;3.80;2.63;;;5.30;1.00;;;;;;5504110;25;20236;-65
2024/04/22 10:15:14;;;;;;;8.67;2.80;;;5.20;1.00;;;;;;5487430;26;20240;-65
2024/04/22 10:18:08;;;;;;;11.20;2.63;;;5.70;1.00;;;;;;5489402;25;20274;-65
2024/04/22 10:21:02;;;;;;;5.00;2.80;;;5.70;1.00;;;;;;5508798;25;20277;-64
2024/04/22 10:23:56;;;;;;;3.70;2.20;;;5.40;1.00;;;;;;5512386;25;20236;-65
2024/04/22 10:26:43;;;;;;;4.67;2.33;;;5.60;1.00;;;;;;5501951;25;20227;-64
2024/04/22 10:29:33;;;;;;;3.37;1.87;;;5.60;1.00;;;;;;5518662;25;20659;-65
2024/04/22 10:32:22;;;;;;;5.73;2.50;;;5.70;1.00;;;;;;5520816;25;20570;-65
2024/04/22 10:35:09;;;;;;;3.37;1.70;;;6.40;31.20;;;;;;5508855;25;20280;-64
2024/04/22 10:38:01;;;;;;;8.93;2.33;;;6.50;1.00;;;;;;5500170;25;20954;-64
2024/04/22 10:40:50;;;;;;;6.13;2.33;;;5.60;1.00;;;;;;5505844;25;20824;-64
2024/04/22 10:43:42;;;;;;;4.87;2.20;;;5.70;1.00;;;;;;5505016;25;20316;-64
2024/04/22 10:46:28;;;;;;;3.20;1.73;;;5.90;1.00;;;;;;5520815;25;20227;-64
2024/04/22 10:49:17;;;;;;;2.47;1.40;;;6.10;1.00;;;;;;5500927;25;20714;-64
2024/04/22 10:52:04;;;;;;;4.40;2.40;;;6.10;1.00;;;;;;5502958;25;20368;-65
2024/04/22 10:54:54;;;;;;;4.57;1.60;;;6.70;1.00;;;;;;5527902;25;20222;-64
2024/04/22 10:57:43;;;;;;;4.83;1.87;;;6.20;1.00;;;;;;5535127;25;20250;-64
2024/04/22 11:00:33;;;;;;;3.10;1.73;;;5.90;1.00;;;;;;5536797;25;20222;-66
2024/04/22 11:03:20;;;;;;;4.93;1.87;;;5.20;1.00;;;;;;5541124;25;20353;-67
2024/04/22 11:06:12;;;;;;;4.10;1.97;;;5.10;1.00;;;;;;5549505;25;20273;-64
2024/04/22 11:08:58;;;;;;;6.40;2.40;;;5.30;1.00;;;;;;5533799;25;20226;-65
2024/04/22 11:11:48;;;;;;;2.90;1.77;;;4.90;1.00;;;;;;5541858;25;20220;-66
2024/04/22 11:14:37;;;;;;;5.53;1.60;;;4.90;1.00;;;;;;5558687;25;20696;-65
2024/04/22 11:17:26;;;;;;;2.47;1.13;;;5.20;1.00;;;;;;5536674;25;20556;-65
2024/04/22 11:20:16;;;;;;;3.60;2.23;;;5.30;1.00;;;;;;5544840;25;20743;-65
2024/04/22 11:23:04;;;;;;;7.40;2.80;;;5.30;1.00;;;;;;5537758;25;20228;-65
2024/04/22 11:25:54;;;;;;;5.80;2.33;;;4.60;1.00;;;;;;5550078;25;20764;-65
2024/04/22 11:28:40;;;;;;;8.57;2.43;;;4.80;1.00;;;;;;5561495;25;20293;-65
2024/04/22 11:31:32;;;;;;;9.60;2.93;;;4.90;1.00;;;;;;5558499;25;20816;-65
2024/04/22 11:34:19;;;;;;;4.53;2.43;;;5.00;1.00;;;;;;5531121;25;20263;-65
2024/04/22 11:37:08;;;;;;;2.80;1.47;;;5.10;1.00;;;;;;5537178;25;20230;-65
2024/04/22 11:39:58;;;;;;;11.50;2.17;;;5.10;1.00;;;;;;5554831;25;20231;-65
2024/04/22 11:42:47;;;;;;;4.47;2.97;;;5.20;1.00;;;;;;5527247;25;20220;-66
2024/04/22 11:45:34;;;;;;;4.20;2.30;;;5.50;1.00;;;;;;5548432;25;20227;-66
2024/04/22 11:48:26;;;;;;;4.17;2.50;;;5.30;1.00;;;;;;5543347;25;20777;-65
2024/04/22 11:51:12;;;;;;;4.60;2.60;;;5.30;1.00;;;;;;5547716;25;20622;-66
2024/04/22 11:54:01;;;;;;;4.50;3.10;;;5.70;1.00;;;;;;5536367;25;20590;-65
2024/04/22 11:56:48;;;;;;;4.00;2.50;;;6.20;1.00;;;;;;5540909;25;20243;-65
2024/04/22 11:59:38;;;;;;;4.50;2.80;;;6.20;1.00;;;;;;5542573;25;20714;-65
2024/04/22 12:02:27;;;;;;;6.37;3.37;;;5.60;1.00;;;;;;5541121;25;20289;-66
2024/04/22 12:05:16;;;;;;;7.03;3.20;;;5.80;1.00;;;;;;5542569;25;20276;-66
2024/04/22 12:08:07;;;;;;;5.77;2.87;;;5.80;1.00;;;;;;5529039;25;20235;-65
2024/04/22 12:10:58;;;;;;;8.03;3.30;;;5.70;1.00;;;;;;5551386;25;20225;-65
2024/04/22 12:13:44;;;;;;;5.27;3.20;;;6.40;1.00;;;;;;5519442;25;20251;-66
2024/04/22 12:16:34;;;;;;;5.80;3.30;;;5.80;1.00;;;;;;5518956;25;20224;-66
2024/04/22 12:19:20;;;;;;;4.57;2.63;;;5.60;1.00;;;;;;5510269;25;20330;-65
2024/04/22 12:22:12;;;;;;;3.30;2.20;;;5.30;1.00;;;;;;5560022;25;20589;-65
2024/04/22 12:24:59;;;;;;;8.23;3.20;;;5.50;1.00;;;;;;5550255;25;20292;-65
2024/04/22 12:27:48;;;;;;;6.53;3.20;;;5.60;1.00;;;;;;5540139;25;20232;-65
2024/04/22 12:30:35;;;;;;;4.77;3.37;;;5.50;1.00;;;;;;5556989;25;20233;-65
2024/04/22 12:33:24;;;;;;;4.20;2.43;;;5.50;1.00;;;;;;5548031;25;20270;-65
2024/04/22 12:36:11;;;;;;;3.60;1.70;;;5.50;1.00;;;;;;5552314;25;20315;-65
2024/04/22 12:39:03;;;;;;;7.00;3.13;;;5.40;1.00;;;;;;5526450;25;20299;-65
2024/04/22 12:41:52;;;;;;;5.70;2.93;;;5.60;1.00;;;;;;5529470;25;20808;-65
2024/04/22 12:44:39;;;;;;;5.27;2.87;;;5.80;1.00;;;;;;5563906;25;20777;-65
2024/04/22 12:53:35;;;;;;;6.83;2.70;;;6.10;1.00;;;;;;5539512;25;20299;-67
2024/04/22 12:56:28;;;;;;;7.40;3.80;;;6.00;1.00;;;;;;5530886;25;20238;-65
2024/04/22 12:59:17;;;;;;;6.60;3.23;;;6.10;1.00;;;;;;5527415;25;20293;-65
2024/04/22 13:02:07;;;;;;;7.13;3.23;;;6.30;1.00;;;;;;5537542;25;20283;-65
2024/04/22 13:04:58;;;;;;;5.83;3.33;;;5.70;1.00;;;;;;5528847;25;20229;-65
2024/04/22 13:07:47;;;;;;;6.27;3.40;;;5.60;1.00;;;;;;5552438;25;20289;-66
2024/04/22 13:10:37;;;;;;;8.43;3.63;;;5.80;1.00;;;;;;5551640;25;20344;-65
2024/04/22 13:13:29;;;;;;;8.17;3.40;;;5.90;1.00;;;;;;5532380;25;20300;-65
2024/04/22 13:16:18;;;;;;;11.07;3.90;;;6.00;1.00;;;;;;5530866;25;20799;-65
2024/04/22 13:19:07;;;;;;;6.03;3.20;;;6.10;1.00;;;;;;5562848;25;20837;-66
2024/04/22 13:21:54;;;;;;;5.60;3.23;;;5.80;1.00;;;;;;5548094;25;20286;-65
2024/04/22 13:24:43;;;;;;;9.27;3.77;;;5.60;1.00;;;;;;5540579;25;20718;-65
2024/04/22 13:27:30;;;;;;;7.93;3.40;;;5.60;1.00;;;;;;5526150;25;20296;-64
2024/04/22 13:30:22;;;;;;;6.50;4.10;;;5.60;1.00;;;;;;5547088;25;20269;-65
2024/04/22 13:33:09;;;;;;;10.73;5.00;;;5.50;1.00;;;;;;5545117;25;20338;-65
2024/04/22 13:35:59;;;;;;;4.70;3.00;;;5.50;1.00;;;;;;5557450;25;20273;-65
2024/04/22 13:38:49;;;;;;;7.83;3.53;;;5.70;1.00;;;;;;5526287;25;20230;-65
2024/04/22 13:41:36;;;;;;;7.10;3.23;;;5.90;1.00;;;;;;5561597;25;20664;-64
2024/04/22 13:44:25;;;;;;;5.17;2.80;;;6.00;1.00;;;;;;5565826;25;20269;-65
2024/04/22 13:47:15;;;;;;;5.40;3.20;;;5.90;1.00;;;;;;5550374;25;20225;-65
2024/04/22 13:50:04;;;;;;;6.50;3.40;;;5.70;1.00;;;;;;5528986;25;20232;-65
2024/04/22 13:52:51;;;;;;;8.80;3.67;;;5.60;1.00;;;;;;5558318;25;20236;-65
2024/04/22 13:55:40;;;;;;;7.43;3.47;;;5.40;1.00;;;;;;5529257;25;20227;-65
2024/04/22 13:58:26;;;;;;;11.33;4.37;;;5.60;1.00;;;;;;5528657;25;20229;-65
2024/04/22 14:01:16;;;;;;;9.90;3.83;;;5.10;1.00;;;;;;5536935;25;20274;-65
2024/04/22 14:04:05;;;;;;;8.17;3.20;;;5.20;1.00;;;;;;5534215;25;20228;-65
2024/04/22 14:06:55;;;;;;;7.97;3.97;;;5.20;1.00;;;;;;5553912;25;20225;-65
2024/04/22 14:09:42;;;;;;;6.57;3.87;;;5.20;1.00;;;;;;5557355;25;20236;-65
2024/04/22 14:12:31;;;;;;;7.50;3.10;;;5.20;1.00;;;;;;5546354;25;20335;-65
2024/04/22 14:15:18;;;;;;;8.47;3.67;;;5.50;1.00;;;;;;5540557;25;20233;-65
2024/04/22 14:18:07;;;;;;;8.27;3.27;;;5.60;1.00;;;;;;5539079;25;20814;-65
2024/04/22 14:20:57;;;;;;;5.27;3.07;;;5.70;1.00;;;;;;5524847;25;20835;-66
2024/04/22 14:23:46;;;;;;;5.93;3.47;;;5.80;1.00;;;;;;5564787;25;20292;-65
2024/04/22 14:26:33;;;;;;;4.30;2.87;;;5.40;1.00;;;;;;5541997;25;20228;-65
2024/04/22 14:29:22;;;;;;;12.60;2.10;;;5.30;1.00;;;;;;5533565;25;20333;-65
2024/04/22 14:32:09;;;;;;;3.97;2.33;;;5.20;1.00;;;;;;5539008;25;20341;-66
2024/04/22 14:35:01;;;;;;;7.77;3.20;;;5.40;1.00;;;;;;5545738;25;20621;-65
2024/04/22 14:37:50;;;;;;;3.40;2.27;;;5.60;1.00;;;;;;5537160;25;20272;-66
2024/04/22 14:40:39;;;;;;;3.53;2.40;;;5.70;1.00;;;;;;5529312;25;20221;-65
2024/04/22 14:43:27;;;;;;;2.80;2.13;;;5.30;1.00;;;;;;5542315;25;20314;-65
2024/04/22 14:46:19;;;;;;;7.87;3.47;;;5.00;1.00;;;;;;5536119;25;20224;-65
2024/04/22 14:49:06;;;;;;;5.60;3.33;;;5.00;1.00;;;;;;5533496;25;20234;-65
2024/04/22 14:51:55;;;;;;;4.67;3.30;;;5.00;1.00;;;;;;5545972;25;20279;-65
2024/04/22 14:54:47;;;;;;;3.83;3.00;;;5.20;1.00;;;;;;5522379;25;20311;-66
2024/04/22 14:57:34;;;;;;;6.83;3.17;;;5.40;1.00;;;;;;5526764;25;20305;-65
2024/04/22 15:00:23;;;;;;;3.23;1.63;;;5.40;1.00;;;;;;5538015;25;20797;-65